createdAt,value
2023-09-03T00:02:01.781Z,7.22
2023-09-03T00:04:04.993Z,9.63
2023-09-03T00:06:08.001Z,4.57
2023-09-03T00:08:11.744Z,6.65
2023-09-03T00:10:14.587Z,4.85
2023-09-03T00:12:17.367Z,7.50
2023-09-03T00:14:19.337Z,6.40
2023-09-03T00:16:22.187Z,7.90
2023-09-03T00:18:26.407Z,7.03
2023-09-03T00:20:29.327Z,4.97
2023-09-03T00:22:32.132Z,7.57
2023-09-03T00:24:34.958Z,6.93
2023-09-03T00:26:37.850Z,6.88
2023-09-03T00:28:40.698Z,5.90
2023-09-03T00:30:43.289Z,5.75
2023-09-03T00:32:46.819Z,5.40
2023-09-03T00:34:51.069Z,4.90
2023-09-03T00:36:53.914Z,8.13
2023-09-03T00:38:58.343Z,7.05
2023-09-03T00:43:04.818Z,6.75
2023-09-03T00:45:08.790Z,5.97
2023-09-03T00:47:12.224Z,8.88
2023-09-03T00:49:21.897Z,8.57
2023-09-03T00:51:26.766Z,8.05
2023-09-03T00:53:30.494Z,7.50
2023-09-03T00:55:33.668Z,7.30
2023-09-03T00:57:36.676Z,4.82
2023-09-03T00:59:41.332Z,3.90
2023-09-03T01:01:44.275Z,7.45
2023-09-03T01:03:49.017Z,5.20
2023-09-03T01:05:51.937Z,7.75
2023-09-03T01:07:57.148Z,6.50
2023-09-03T01:10:02.302Z,5.07
2023-09-03T01:12:11.652Z,9.90
2023-09-03T01:14:25.821Z,5.03
2023-09-03T01:16:34.937Z,7.57
2023-09-03T01:18:40.816Z,5.93
2023-09-03T01:20:46.793Z,6.78
2023-09-03T01:23:25.042Z,7.80
2023-09-03T01:25:50.122Z,10.57
2023-09-03T01:28:00.427Z,7.32
2023-09-03T01:30:06.422Z,8.15
2023-09-03T01:32:11.828Z,8.68
2023-09-03T01:34:15.349Z,10.80
2023-09-03T01:36:19.906Z,7.23
2023-09-03T01:38:23.848Z,7.85
2023-09-03T01:40:26.806Z,6.60
2023-09-03T01:42:29.654Z,6.05
2023-09-03T01:44:32.776Z,6.68
2023-09-03T01:46:45.923Z,8.00
2023-09-03T01:49:03.861Z,6.45
2023-09-03T01:51:17.723Z,6.85
2023-09-03T01:53:25.659Z,6.70
2023-09-03T01:55:30.654Z,6.40
2023-09-03T01:57:37.137Z,6.90
2023-09-03T01:59:43.948Z,8.40
2023-09-03T02:01:51.517Z,6.53
2023-09-03T02:03:54.650Z,7.28
2023-09-03T02:05:58.006Z,6.22
2023-09-03T02:08:00.900Z,5.00
2023-09-03T02:10:03.785Z,6.10
2023-09-03T02:12:08.612Z,6.70
2023-09-03T02:14:11.492Z,8.70
2023-09-03T02:16:16.217Z,9.60
2023-09-03T02:18:20.597Z,8.95
2023-09-03T02:22:26.267Z,4.63
2023-09-03T02:24:29.084Z,8.55
2023-09-03T02:26:31.016Z,8.82
2023-09-03T02:28:36.090Z,9.18
2023-09-03T02:30:38.977Z,5.63
2023-09-03T02:32:41.937Z,6.43
2023-09-03T02:34:46.156Z,8.25
2023-09-03T02:36:51.308Z,8.30
2023-09-03T02:39:01.290Z,10.45
2023-09-03T02:41:04.129Z,8.60
2023-09-03T02:43:07.171Z,9.20
2023-09-03T02:45:11.014Z,7.88
2023-09-03T02:47:13.809Z,6.40
2023-09-03T02:49:16.892Z,9.68
2023-09-03T02:51:21.952Z,7.22
2023-09-03T02:53:24.847Z,8.15
2023-09-03T02:55:27.776Z,7.45
2023-09-03T02:57:30.644Z,7.72
2023-09-03T02:59:33.736Z,7.15
2023-09-03T03:01:35.727Z,6.70
2023-09-03T03:03:38.886Z,7.95
2023-09-03T03:05:41.801Z,6.57
2023-09-03T03:07:46.233Z,6.72
2023-09-03T03:09:51.033Z,10.55
2023-09-03T03:11:54.137Z,9.25
2023-09-03T03:13:57.309Z,8.23
2023-09-03T03:16:07.243Z,7.13
2023-09-03T03:18:10.569Z,13.75
2023-09-03T03:20:13.828Z,8.57
2023-09-03T03:22:16.855Z,8.95
2023-09-03T03:24:21.886Z,10.02
2023-09-03T03:26:24.985Z,10.10
2023-09-03T03:28:26.887Z,9.05
2023-09-03T03:30:30.453Z,14.40
2023-09-03T03:32:33.442Z,9.90
2023-09-03T03:34:37.203Z,8.70
2023-09-03T03:36:39.158Z,9.18
2023-09-03T03:38:42.144Z,9.85
2023-09-03T03:40:46.363Z,9.23
2023-09-03T03:42:49.223Z,7.18
2023-09-03T03:44:52.091Z,6.93
2023-09-03T03:46:55.155Z,9.43
2023-09-03T03:48:58.458Z,8.32
2023-09-03T03:51:02.411Z,7.68
2023-09-03T03:53:05.616Z,5.90
2023-09-03T03:55:08.956Z,9.68
2023-09-03T03:57:13.335Z,6.80
2023-09-03T03:59:16.186Z,6.65
2023-09-03T04:01:20.696Z,8.07
2023-09-03T04:03:24.866Z,6.55
2023-09-03T04:05:30.431Z,9.23
2023-09-03T04:07:34.108Z,6.22
2023-09-03T04:09:38.618Z,7.90
2023-09-03T04:11:42.578Z,7.85
2023-09-03T04:13:47.120Z,6.18
2023-09-03T04:15:50.064Z,7.88
2023-09-03T04:17:53.007Z,8.35
2023-09-03T04:19:56.418Z,7.85
2023-09-03T04:21:59.275Z,5.47
2023-09-03T04:24:03.682Z,7.55
2023-09-03T04:26:06.741Z,6.13
2023-09-03T04:28:14.133Z,8.88
2023-09-03T04:30:18.548Z,5.35
2023-09-03T04:32:22.338Z,8.60
2023-09-03T04:34:25.518Z,7.70
2023-09-03T04:36:28.423Z,5.88
2023-09-03T04:38:31.813Z,6.47
2023-09-03T04:40:36.292Z,5.60
2023-09-03T04:42:40.267Z,5.35
2023-09-03T04:44:43.780Z,6.75
2023-09-03T04:46:48.079Z,5.65
2023-09-03T04:48:51.058Z,7.95
2023-09-03T04:50:53.993Z,6.57
2023-09-03T04:52:57.981Z,7.82
2023-09-03T04:55:00.786Z,6.28
2023-09-03T04:57:04.033Z,6.75
2023-09-03T04:59:06.946Z,6.80
2023-09-03T05:01:16.784Z,7.15
2023-09-03T05:03:23.162Z,6.55
2023-09-03T05:05:26.737Z,5.82
2023-09-03T05:07:29.822Z,7.30
2023-09-03T05:09:33.061Z,7.18
2023-09-03T05:11:37.200Z,5.45
2023-09-03T05:13:40.310Z,6.32
2023-09-03T05:15:43.952Z,8.30
2023-09-03T05:17:46.859Z,6.00
2023-09-03T05:19:51.324Z,8.73
2023-09-03T05:23:56.912Z,5.88
2023-09-03T05:25:59.914Z,5.10
2023-09-03T05:28:03.385Z,5.47
2023-09-03T05:30:07.933Z,7.95
2023-09-03T05:34:15.300Z,6.25
2023-09-03T05:36:19.600Z,4.88
2023-09-03T05:38:24.396Z,7.68
2023-09-03T05:40:27.335Z,5.72
2023-09-03T05:42:30.201Z,8.10
2023-09-03T05:44:33.303Z,4.60
2023-09-03T05:46:36.167Z,7.07
2023-09-03T05:48:39.057Z,4.65
2023-09-03T05:50:45.657Z,6.13
2023-09-03T05:52:50.656Z,7.13
2023-09-03T05:54:53.604Z,2.88
2023-09-03T05:56:56.635Z,6.20
2023-09-03T05:59:05.074Z,8.15
2023-09-03T06:01:10.070Z,5.32
2023-09-03T06:03:13.003Z,11.35
2023-09-03T06:05:15.944Z,6.32
2023-09-03T06:07:18.842Z,6.07
2023-09-03T06:09:23.056Z,9.70
2023-09-03T06:11:24.898Z,6.22
2023-09-03T06:13:27.795Z,6.13
2023-09-03T06:15:30.734Z,9.45
2023-09-03T06:17:33.665Z,7.75
2023-09-03T06:19:36.666Z,8.88
2023-09-03T06:21:39.501Z,8.07
2023-09-03T06:23:42.374Z,11.45
2023-09-03T06:25:46.722Z,9.27
2023-09-03T06:27:49.640Z,11.40
2023-09-03T06:29:52.487Z,12.10
2023-09-03T06:31:55.419Z,7.63
2023-09-03T06:33:58.294Z,8.93
2023-09-03T06:36:01.169Z,11.82
2023-09-03T06:38:04.077Z,9.75
2023-09-03T06:40:09.827Z,13.23
2023-09-03T06:42:13.613Z,9.30
2023-09-03T06:44:16.634Z,8.15
2023-09-03T06:46:19.448Z,9.45
2023-09-03T06:48:21.583Z,11.63
2023-09-03T06:50:24.599Z,9.70
2023-09-03T06:52:27.505Z,8.82
2023-09-03T06:54:30.347Z,10.32
2023-09-03T06:56:33.241Z,11.05
2023-09-03T06:58:37.411Z,11.60
2023-09-03T07:00:40.331Z,9.68
2023-09-03T07:02:43.217Z,10.32
2023-09-03T07:04:46.083Z,10.55
2023-09-03T07:06:48.926Z,10.38
2023-09-03T07:08:53.256Z,12.32
2023-09-03T07:11:00.751Z,11.13
2023-09-03T07:13:02.670Z,12.43
2023-09-03T07:15:08.719Z,11.30
2023-09-03T07:17:11.601Z,11.15
2023-09-03T07:19:14.576Z,10.20
2023-09-03T07:21:17.466Z,11.85
2023-09-03T07:23:19.337Z,14.52
2023-09-03T07:25:22.529Z,11.93
2023-09-03T07:27:25.377Z,10.57
2023-09-03T07:29:28.178Z,11.93
2023-09-03T07:31:32.359Z,12.18
2023-09-03T07:33:35.222Z,9.30
2023-09-03T07:35:38.045Z,9.93
2023-09-03T07:37:44.035Z,11.15
2023-09-03T07:39:46.675Z,14.63
2023-09-03T07:41:49.612Z,10.65
2023-09-03T07:43:52.746Z,13.55
2023-09-03T07:45:55.792Z,10.40
2023-09-03T07:48:00.149Z,14.60
2023-09-03T07:50:03.000Z,13.63
2023-09-03T07:52:07.912Z,12.35
2023-09-03T07:54:11.011Z,11.57
2023-09-03T07:56:13.788Z,13.80
2023-09-03T07:58:16.739Z,10.50
2023-09-03T08:00:20.676Z,11.07
2023-09-03T08:02:24.394Z,12.75
2023-09-03T08:04:27.624Z,8.73
2023-09-03T08:06:30.457Z,10.63
2023-09-03T08:08:33.326Z,14.38
2023-09-03T08:10:36.173Z,9.82
2023-09-03T08:12:39.058Z,13.25
2023-09-03T08:14:43.248Z,11.38
2023-09-03T08:16:46.293Z,12.57
2023-09-03T08:18:49.162Z,10.02
2023-09-03T08:20:54.196Z,11.40
2023-09-03T08:22:57.002Z,9.65
2023-09-03T08:24:59.825Z,11.88
2023-09-03T08:27:02.671Z,8.40
2023-09-03T08:29:05.565Z,9.50
2023-09-03T08:31:08.546Z,9.23
2023-09-03T08:33:11.481Z,9.32
2023-09-03T08:35:15.149Z,8.60
2023-09-03T08:37:19.416Z,9.88
2023-09-03T08:41:25.207Z,10.45
2023-09-03T08:43:30.343Z,9.10
2023-09-03T08:45:35.637Z,8.50
2023-09-03T08:47:41.528Z,9.90
2023-09-03T08:49:46.848Z,11.45
2023-09-03T08:51:48.809Z,9.52
2023-09-03T08:53:56.479Z,11.32
2023-09-03T08:55:59.585Z,10.95
2023-09-03T08:58:02.493Z,11.73
2023-09-03T09:00:06.777Z,11.13
2023-09-03T09:02:21.939Z,9.73
2023-09-03T09:04:24.186Z,16.02
2023-09-03T09:06:27.119Z,12.70
2023-09-03T09:08:30.613Z,10.23
2023-09-03T09:10:38.269Z,9.83
2023-09-03T09:12:45.026Z,10.00
2023-09-03T09:14:54.710Z,9.07
2023-09-03T09:16:57.670Z,8.77
2023-09-03T09:19:03.467Z,6.68
2023-09-03T09:21:07.247Z,8.65
2023-09-03T09:23:10.869Z,7.75
2023-09-03T09:25:20.484Z,7.68
2023-09-03T09:27:24.736Z,6.50
2023-09-03T09:29:27.573Z,7.45
2023-09-03T09:31:32.075Z,6.93
2023-09-03T09:33:35.005Z,6.63
2023-09-03T09:35:37.842Z,7.00
2023-09-03T09:37:41.641Z,7.70
2023-09-03T09:39:45.746Z,8.98
2023-09-03T09:41:48.575Z,6.07
2023-09-03T09:43:53.312Z,9.25
2023-09-03T09:45:56.173Z,6.65
2023-09-03T09:48:07.417Z,7.32
2023-09-03T09:50:10.760Z,5.97
2023-09-03T09:52:13.780Z,6.95
2023-09-03T09:54:16.712Z,6.57
2023-09-03T09:56:19.311Z,7.22
2023-09-03T09:58:22.213Z,5.72
2023-09-03T10:00:35.469Z,6.30
2023-09-03T10:02:39.496Z,10.15
2023-09-03T10:04:42.792Z,5.55
2023-09-03T10:06:45.736Z,7.65
2023-09-03T10:08:51.965Z,7.80
2023-09-03T10:10:55.040Z,8.52
2023-09-03T10:12:57.903Z,7.82
2023-09-03T10:15:01.048Z,6.63
2023-09-03T10:17:07.152Z,8.10
2023-09-03T10:19:15.445Z,6.00
2023-09-03T10:21:23.430Z,6.75
2023-09-03T10:23:31.875Z,6.65
2023-09-03T10:25:37.530Z,6.47
2023-09-03T10:27:42.659Z,5.88
2023-09-03T10:29:48.700Z,5.68
2023-09-03T10:31:53.161Z,5.00
2023-09-03T10:33:57.505Z,8.52
2023-09-03T10:38:32.014Z,4.70
2023-09-03T10:40:35.165Z,7.43
2023-09-03T10:42:37.162Z,5.15
2023-09-03T10:44:43.550Z,7.45
2023-09-03T10:47:02.390Z,4.55
2023-09-03T10:49:08.535Z,6.05
2023-09-03T10:53:37.654Z,6.32
2023-09-03T10:55:40.549Z,6.03
2023-09-03T10:57:43.273Z,5.97
2023-09-03T11:00:08.202Z,6.10
2023-09-03T11:02:26.180Z,5.55
2023-09-03T11:04:38.506Z,5.15
2023-09-03T11:06:41.691Z,4.90
2023-09-03T11:08:43.700Z,8.45
2023-09-03T11:10:47.019Z,5.43
2023-09-03T11:12:50.354Z,6.70
2023-09-03T11:14:54.446Z,8.20
2023-09-03T11:16:59.751Z,10.55
2023-09-03T11:19:04.364Z,5.60
2023-09-03T11:21:08.687Z,4.82
2023-09-03T11:25:14.698Z,3.90
2023-09-03T11:27:17.644Z,5.68
2023-09-03T11:29:21.665Z,5.90
2023-09-03T11:31:24.398Z,5.20
2023-09-03T11:33:28.842Z,5.65
2023-09-03T11:35:41.732Z,6.50
2023-09-03T11:37:45.968Z,7.82
2023-09-03T11:39:52.528Z,5.28
2023-09-03T11:41:55.678Z,6.75
2023-09-03T11:43:58.569Z,4.43
2023-09-03T11:46:05.801Z,7.55
2023-09-03T11:48:10.045Z,6.13
2023-09-03T11:52:18.235Z,4.40
2023-09-03T11:54:25.752Z,4.97
2023-09-03T11:56:31.306Z,7.13
2023-09-03T11:58:33.576Z,6.18
2023-09-03T12:00:37.569Z,6.18
2023-09-03T12:02:40.423Z,6.43
2023-09-03T12:04:44.768Z,4.97
2023-09-03T12:06:48.187Z,4.32
2023-09-03T12:08:51.175Z,4.97
2023-09-03T12:10:54.532Z,5.65
2023-09-03T12:12:57.418Z,4.97
2023-09-03T12:15:00.410Z,5.15
2023-09-03T12:17:03.336Z,6.25
2023-09-03T12:19:06.232Z,7.43
2023-09-03T12:21:10.117Z,5.68
2023-09-03T12:23:14.657Z,5.35
2023-09-03T12:25:17.893Z,5.57
2023-09-03T12:27:22.138Z,5.55
2023-09-03T12:29:31.808Z,5.63
2023-09-03T12:31:43.275Z,4.75
2023-09-03T12:33:48.864Z,7.47
2023-09-03T12:36:08.474Z,4.05
2023-09-03T12:38:11.431Z,5.32
2023-09-03T12:40:14.929Z,4.68
2023-09-03T12:42:19.064Z,4.18
2023-09-03T12:44:23.276Z,3.63
2023-09-03T12:48:28.017Z,3.17
2023-09-03T12:50:30.932Z,4.63
2023-09-03T12:52:33.905Z,5.88
2023-09-03T12:54:35.935Z,5.47
2023-09-03T12:56:38.758Z,4.60
2023-09-03T12:58:43.218Z,4.35
2023-09-03T13:00:47.487Z,4.30
2023-09-03T13:04:53.478Z,5.20
2023-09-03T13:06:56.382Z,5.00
2023-09-03T13:08:59.165Z,4.80
2023-09-03T13:11:02.599Z,4.60
2023-09-03T13:13:08.702Z,3.65
2023-09-03T13:15:12.236Z,4.72
2023-09-03T13:17:16.392Z,4.57
2023-09-03T13:19:19.228Z,4.00
2023-09-03T13:21:22.404Z,3.00
2023-09-03T13:23:25.572Z,3.92
2023-09-03T13:25:34.922Z,4.17
2023-09-03T13:27:38.398Z,4.60
2023-09-03T13:29:41.287Z,5.63
2023-09-03T13:31:44.143Z,5.43
2023-09-03T13:33:49.018Z,4.80
2023-09-03T13:35:53.329Z,5.45
2023-09-03T13:39:58.901Z,5.47
2023-09-03T13:42:01.952Z,4.85
2023-09-03T13:44:05.036Z,4.68
2023-09-03T13:46:07.894Z,4.72
2023-09-03T13:48:09.971Z,4.80
2023-09-03T13:50:14.193Z,4.68
2023-09-03T13:54:20.173Z,5.53
2023-09-03T13:56:23.013Z,4.07
2023-09-03T13:58:25.816Z,5.82
2023-09-03T14:00:28.961Z,4.32
2023-09-03T14:02:30.979Z,5.57
2023-09-03T14:04:34.055Z,4.60
2023-09-03T14:06:39.359Z,8.27
2023-09-03T14:08:42.324Z,6.85
2023-09-03T14:10:45.334Z,4.18
2023-09-03T14:12:48.274Z,5.93
2023-09-03T14:14:50.191Z,5.18
2023-09-03T14:16:53.104Z,5.55
2023-09-03T14:18:55.955Z,5.15
2023-09-03T14:20:58.965Z,5.93
2023-09-03T14:23:03.141Z,6.10
2023-09-03T14:27:09.221Z,4.07
2023-09-03T14:29:12.048Z,8.48
2023-09-03T14:31:14.848Z,5.20
2023-09-03T14:33:17.732Z,5.07
2023-09-03T14:35:20.593Z,5.82
2023-09-03T14:37:24.458Z,5.20
2023-09-03T14:39:28.771Z,5.90
2023-09-03T14:43:33.383Z,6.18
2023-09-03T14:45:36.208Z,5.55
2023-09-03T14:47:41.018Z,4.63
2023-09-03T14:49:45.954Z,4.43
2023-09-03T14:51:49.390Z,5.80
2023-09-03T14:53:52.999Z,5.63
2023-09-03T14:55:57.264Z,7.47
2023-09-03T15:00:04.074Z,5.30
2023-09-03T15:02:13.113Z,5.32
2023-09-03T15:04:20.814Z,6.93
2023-09-03T15:06:25.047Z,5.63
2023-09-03T15:08:28.048Z,5.82
2023-09-03T15:10:31.543Z,6.43
2023-09-03T15:12:35.753Z,6.25
2023-09-03T15:14:39.409Z,4.72
2023-09-03T15:16:42.545Z,7.15
2023-09-03T15:18:45.461Z,6.80
2023-09-03T15:20:53.668Z,5.50
2023-09-03T15:22:55.575Z,6.82
2023-09-03T15:24:58.425Z,8.38
2023-09-03T15:27:01.509Z,6.90
2023-09-03T15:29:05.979Z,6.75
2023-09-03T15:31:08.935Z,6.55
2023-09-03T15:33:14.524Z,5.35
2023-09-03T15:35:42.357Z,6.28
2023-09-03T15:37:47.785Z,4.50
2023-09-03T15:39:50.981Z,5.28
2023-09-03T15:41:53.842Z,6.45
2023-09-03T15:43:57.228Z,5.65
2023-09-03T15:46:01.098Z,6.00
2023-09-03T15:48:04.692Z,5.47
2023-09-03T15:50:08.282Z,4.97
2023-09-03T15:52:11.240Z,7.25
2023-09-03T15:54:15.750Z,6.90
2023-09-03T15:56:19.896Z,4.70
2023-09-03T15:58:23.021Z,6.35
2023-09-03T16:00:26.207Z,11.63
2023-09-03T16:02:30.579Z,6.28
2023-09-03T16:06:36.115Z,6.05
2023-09-03T16:08:38.977Z,5.50
2023-09-03T16:10:41.997Z,6.93
2023-09-03T16:12:43.959Z,5.40
2023-09-03T16:14:46.784Z,6.07
2023-09-03T16:16:49.699Z,7.55
2023-09-03T16:18:53.943Z,6.93
2023-09-03T16:22:59.495Z,5.10
2023-09-03T16:25:02.377Z,5.88
2023-09-03T16:27:05.456Z,8.00
2023-09-03T16:29:08.260Z,5.72
2023-09-03T16:31:12.417Z,4.57
2023-09-03T16:33:15.352Z,5.13
2023-09-03T16:35:20.643Z,5.43
2023-09-03T16:37:24.059Z,5.25
2023-09-03T16:39:27.153Z,5.40
2023-09-03T16:41:30.881Z,5.53
2023-09-03T16:43:36.839Z,5.47
2023-09-03T16:45:43.526Z,8.15
2023-09-03T16:47:48.150Z,5.47
2023-09-03T16:49:52.899Z,6.80
2023-09-03T16:51:57.006Z,5.10
2023-09-03T16:53:59.866Z,5.60
2023-09-03T16:56:02.845Z,5.53
2023-09-03T16:58:06.041Z,5.80
2023-09-03T17:00:09.937Z,5.45
2023-09-03T17:02:14.183Z,5.85
2023-09-03T17:04:17.048Z,5.95
2023-09-03T17:06:21.134Z,6.97
2023-09-03T17:08:26.928Z,6.80
2023-09-03T17:10:29.845Z,5.93
2023-09-03T17:12:32.681Z,7.57
2023-09-03T17:14:35.628Z,9.52
2023-09-03T17:16:38.676Z,4.63
2023-09-03T17:18:40.572Z,7.03
2023-09-03T17:20:45.919Z,6.82
2023-09-03T17:22:48.886Z,5.13
2023-09-03T17:24:53.340Z,5.60
2023-09-03T17:26:56.144Z,6.50
2023-09-03T17:29:00.262Z,8.15
2023-09-03T17:31:03.414Z,6.55
2023-09-03T17:33:06.933Z,4.88
2023-09-03T17:35:09.802Z,6.80
2023-09-03T17:37:14.428Z,7.65
2023-09-03T17:39:18.331Z,7.15
2023-09-03T17:41:23.582Z,5.90
2023-09-03T17:43:26.558Z,8.27
2023-09-03T17:45:28.453Z,5.38
2023-09-03T17:47:31.902Z,6.43
2023-09-03T17:49:34.772Z,6.67
2023-09-03T17:51:37.714Z,5.95
2023-09-03T17:53:40.599Z,6.43
2023-09-03T17:55:43.426Z,8.18
2023-09-03T17:57:47.627Z,7.20
2023-09-03T17:59:50.664Z,6.97
2023-09-03T18:01:53.617Z,7.45
2023-09-03T18:03:56.439Z,6.35
2023-09-03T18:05:59.543Z,6.60
2023-09-03T18:08:02.379Z,6.60
2023-09-03T18:10:05.691Z,5.82
2023-09-03T18:12:10.600Z,5.90
2023-09-03T18:14:14.844Z,6.78
2023-09-03T18:16:17.076Z,7.70
2023-09-03T18:18:20.331Z,7.25
2023-09-03T18:20:24.782Z,7.65
2023-09-03T18:22:26.887Z,7.13
2023-09-03T18:24:29.660Z,9.40
2023-09-03T18:26:33.099Z,8.57
2023-09-03T18:28:36.051Z,6.83
2023-09-03T18:30:40.315Z,5.88
2023-09-03T18:32:43.330Z,7.63
2023-09-03T18:34:46.225Z,5.60
2023-09-03T18:36:49.189Z,6.97
2023-09-03T18:38:54.350Z,7.43
2023-09-03T18:40:59.454Z,6.40
2023-09-03T18:43:01.342Z,5.45
2023-09-03T18:45:04.587Z,5.88
2023-09-03T18:47:09.052Z,7.05
2023-09-03T18:49:12.111Z,5.10
2023-09-03T18:51:15.022Z,6.53
2023-09-03T18:53:16.926Z,4.50
2023-09-03T18:55:20.410Z,6.43
2023-09-03T18:57:23.356Z,7.60
2023-09-03T18:59:26.354Z,4.70
2023-09-03T19:01:30.141Z,6.03
2023-09-03T19:03:34.476Z,5.32
2023-09-03T19:07:41.257Z,6.05
2023-09-03T19:09:44.625Z,7.82
2023-09-03T19:11:47.457Z,4.97
2023-09-03T19:13:50.483Z,6.55
2023-09-03T19:15:55.225Z,9.30
2023-09-03T19:17:58.385Z,6.32
2023-09-03T19:20:02.841Z,8.30
2023-09-03T19:22:06.004Z,6.85
2023-09-03T19:24:09.156Z,6.30
2023-09-03T19:26:12.115Z,6.65
2023-09-03T19:28:16.564Z,5.55
2023-09-03T19:30:19.552Z,6.47
2023-09-03T19:32:22.474Z,8.77
2023-09-03T19:34:26.362Z,6.22
2023-09-03T19:36:30.660Z,6.82
2023-09-03T19:38:35.757Z,5.50
2023-09-03T19:40:38.903Z,5.57
2023-09-03T19:42:52.437Z,6.32
2023-09-03T19:44:56.568Z,6.25
2023-09-03T19:46:59.688Z,5.18
2023-09-03T19:49:04.335Z,5.88
2023-09-03T19:51:07.200Z,5.63
2023-09-03T19:53:11.399Z,5.22
2023-09-03T19:55:14.421Z,5.55
2023-09-03T19:57:17.256Z,5.47
2023-09-03T19:59:20.241Z,4.68
2023-09-03T20:01:23.184Z,7.30
2023-09-03T20:03:26.201Z,4.80
2023-09-03T20:05:29.128Z,7.18
2023-09-03T20:07:32.046Z,5.57
2023-09-03T20:09:37.616Z,7.32
2023-09-03T20:11:40.902Z,6.88
2023-09-03T20:13:44.589Z,6.18
2023-09-03T20:15:55.980Z,6.35
2023-09-03T20:18:00.270Z,5.75
2023-09-03T20:20:05.509Z,6.80
2023-09-03T20:22:08.405Z,5.13
2023-09-03T20:24:11.277Z,4.43
2023-09-03T20:26:17.234Z,6.78
2023-09-03T20:28:28.406Z,9.20
2023-09-03T20:30:38.641Z,7.07
2023-09-03T20:32:41.581Z,7.40
2023-09-03T20:34:44.557Z,7.10
2023-09-03T20:36:47.394Z,7.32
2023-09-03T20:38:50.231Z,6.72
2023-09-03T20:40:53.525Z,5.72
2023-09-03T20:42:57.768Z,7.85
2023-09-03T20:45:00.652Z,5.80
2023-09-03T20:47:03.801Z,5.43
2023-09-03T20:49:06.662Z,6.43
2023-09-03T20:51:09.568Z,7.43
2023-09-03T20:53:13.200Z,5.30
2023-09-03T20:55:15.153Z,5.95
2023-09-03T20:57:18.165Z,7.03
2023-09-03T20:59:22.419Z,4.70
2023-09-03T21:01:27.058Z,6.28
2023-09-03T21:03:37.262Z,6.03
2023-09-03T21:05:40.055Z,6.50
2023-09-03T21:07:42.951Z,9.38
2023-09-03T21:09:46.098Z,7.30
2023-09-03T21:11:48.976Z,6.15
2023-09-03T21:13:51.799Z,6.88
2023-09-03T21:15:57.079Z,5.85
2023-09-03T21:18:00.098Z,5.78
2023-09-03T21:20:05.116Z,5.38
2023-09-03T21:22:08.009Z,7.35
2023-09-03T21:24:10.842Z,5.18
2023-09-03T21:26:14.452Z,6.90
2023-09-03T21:28:17.349Z,5.05
2023-09-03T21:30:20.217Z,6.97
2023-09-03T21:32:23.728Z,6.40
2023-09-03T21:34:28.626Z,6.47
2023-09-03T21:36:31.549Z,6.15
2023-09-03T21:38:34.389Z,6.45
2023-09-03T21:40:37.860Z,7.07
2023-09-03T21:42:40.757Z,8.68
2023-09-03T21:44:44.340Z,8.05
2023-09-03T21:46:47.222Z,6.60
2023-09-03T21:48:51.442Z,6.55
2023-09-03T21:53:12.116Z,7.78
2023-09-03T21:55:14.989Z,9.65
2023-09-03T21:57:17.841Z,7.60
2023-09-03T21:59:19.812Z,9.77
2023-09-03T22:01:22.841Z,7.88
2023-09-03T22:03:25.911Z,7.63
2023-09-03T22:05:31.242Z,8.30
2023-09-03T22:07:34.547Z,7.10
2023-09-03T22:09:37.472Z,8.82
2023-09-03T22:11:40.379Z,6.72
2023-09-03T22:13:43.235Z,8.82
2023-09-03T22:15:46.140Z,7.15
2023-09-03T22:17:49.139Z,8.00
2023-09-03T22:19:52.523Z,8.20
2023-09-03T22:21:57.446Z,6.17
2023-09-03T22:24:00.335Z,6.93
2023-09-03T22:26:03.235Z,8.85
2023-09-03T22:28:08.130Z,6.47
2023-09-03T22:30:12.335Z,6.00
2023-09-03T22:32:15.229Z,6.80
2023-09-03T22:34:18.106Z,10.27
2023-09-03T22:36:20.971Z,7.85
2023-09-03T22:38:25.264Z,7.75
2023-09-03T22:40:28.220Z,9.05
2023-09-03T22:42:31.179Z,6.40
2023-09-03T22:44:34.097Z,6.68
2023-09-03T22:46:37.046Z,6.57
2023-09-03T22:48:39.920Z,7.35
2023-09-03T22:50:42.763Z,8.50
2023-09-03T22:52:45.617Z,8.23
2023-09-03T22:54:49.788Z,8.73
2023-09-03T22:56:52.645Z,7.68
2023-09-03T22:58:59.861Z,8.55
2023-09-03T23:01:04.144Z,7.13
2023-09-03T23:03:07.089Z,9.60
2023-09-03T23:05:10.640Z,7.40
2023-09-03T23:07:15.596Z,6.80
2023-09-03T23:09:18.442Z,7.97
2023-09-03T23:11:22.610Z,8.15
2023-09-03T23:13:25.454Z,7.20
2023-09-03T23:15:28.300Z,8.02
2023-09-03T23:17:31.819Z,8.00
2023-09-03T23:21:39.655Z,9.20
2023-09-03T23:23:42.453Z,6.95
2023-09-03T23:25:45.296Z,7.00
2023-09-03T23:27:49.545Z,7.57
2023-09-03T23:29:52.408Z,5.75
2023-09-03T23:31:55.228Z,8.70
2023-09-03T23:33:58.118Z,6.25
2023-09-03T23:36:01.124Z,7.80
2023-09-03T23:38:04.171Z,8.50
2023-09-03T23:40:07.848Z,6.53
2023-09-03T23:42:09.698Z,7.13
2023-09-03T23:44:13.917Z,6.95
2023-09-03T23:46:16.809Z,8.52
2023-09-03T23:48:18.820Z,7.25
2023-09-03T23:50:21.695Z,10.45
2023-09-03T23:52:23.638Z,8.82
2023-09-03T23:54:27.056Z,7.72
2023-09-03T23:56:29.958Z,8.63
2023-09-03T23:58:32.828Z,6.38
